Nearby METAR Reports

 

ENTO - Torp (civ/Nor-Af, Norway
Distance from station: NNØ 26km
Oppdatert: 14/12/2017 19:20
Overskyet
Overskyet
 Vind fra N
Vind: N 15 km/h
Temperatur: -1°C
Wind Chill: -6°C
Duggpunkt: -2°C
Fuktighet: 93%
Barometer: 982 hPa
Clouds: Overskyet
Visibility: 10 km
Cloud details: Overskyet 335 m
2017/12/14 18:20 ENTO 141820Z 36008KT 9999 OVC011 M01/M02 Q0982
ENSN - Skien/Geiteryggen, Norway
Distance from station: NV 31km
Oppdatert: 09/11/2015 09:50
NOT Current
Klart
Klart
 Vind fra SSV
Vind: SSV 19 km/h, Vindkast: 41 km/h
Temperatur: 7°C
Wind Chill: 4°C
Duggpunkt: 3°C
Fuktighet: 76%
Barometer: 1000 hPa
Oversikt: Klart
Visibility: greater than 10 km
2015/11/09 08:50 ENSN 090850Z 20010G22KT 150V240 CAVOK 07/03 Q1000